createdAt,value
2023-07-24T00:00:01.022Z,20.1
2023-07-24T00:03:01.312Z,20.1
2023-07-24T00:06:01.083Z,20.1
2023-07-24T00:09:01.075Z,20.1
2023-07-24T00:12:00.943Z,20.1
2023-07-24T00:15:01.052Z,20.1
2023-07-24T00:18:01.021Z,20.1
2023-07-24T00:21:00.951Z,20.1
2023-07-24T00:24:01.058Z,20.1
2023-07-24T00:27:01.117Z,20.1
2023-07-24T00:30:01.069Z,20.1
2023-07-24T00:33:01.008Z,20.1
2023-07-24T00:36:00.985Z,20.1
2023-07-24T00:39:00.925Z,20.1
2023-07-24T00:42:00.990Z,20.1
2023-07-24T00:45:05.127Z,20.1
2023-07-24T00:48:01.083Z,20.2
2023-07-24T00:51:00.956Z,20.2
2023-07-24T00:54:00.996Z,20.2
2023-07-24T00:57:00.953Z,20.2
2023-07-24T01:00:00.955Z,20.2
2023-07-24T01:03:01.130Z,20.2
2023-07-24T01:06:00.966Z,20.2
2023-07-24T01:09:01.137Z,20.2
2023-07-24T01:12:00.937Z,20.2
2023-07-24T01:15:00.969Z,20.2
2023-07-24T01:18:01.123Z,20.2
2023-07-24T01:21:00.975Z,20.2
2023-07-24T01:24:01.078Z,20.2
2023-07-24T01:27:00.984Z,20.2
2023-07-24T01:30:00.933Z,20.2
2023-07-24T01:33:01.048Z,20.2
2023-07-24T01:36:01.096Z,20.2
2023-07-24T01:39:00.945Z,20.2
2023-07-24T01:42:01.022Z,20.2
2023-07-24T01:45:01.000Z,20.2
2023-07-24T01:48:01.135Z,20.2
2023-07-24T01:51:01.101Z,20.2
2023-07-24T01:54:00.960Z,20.2
2023-07-24T01:57:01.012Z,20.2
2023-07-24T02:00:00.976Z,20.2
2023-07-24T02:03:01.053Z,20.2
2023-07-24T02:06:00.991Z,20.2
2023-07-24T02:09:00.972Z,20.2
2023-07-24T02:12:00.973Z,20.2
2023-07-24T02:15:01.148Z,20.2
2023-07-24T02:18:01.075Z,19.9
2023-07-24T02:21:00.989Z,19.9
2023-07-24T02:24:00.928Z,19.9
2023-07-24T02:27:01.009Z,19.9
2023-07-24T02:30:00.990Z,19.9
2023-07-24T02:33:01.094Z,19.9
2023-07-24T02:36:00.987Z,19.9
2023-07-24T02:39:00.986Z,19.9
2023-07-24T02:42:00.932Z,19.9
2023-07-24T02:45:00.949Z,19.9
2023-07-24T02:48:01.115Z,19.9
2023-07-24T02:51:00.947Z,19.9
2023-07-24T02:54:00.978Z,19.9
2023-07-24T02:57:00.959Z,19.9
2023-07-24T03:00:00.967Z,19.9
2023-07-24T03:03:01.220Z,19.9
2023-07-24T03:06:00.989Z,19.9
2023-07-24T03:09:00.992Z,19.9
2023-07-24T03:12:00.997Z,19.9
2023-07-24T03:15:00.949Z,19.9
2023-07-24T03:18:01.035Z,19.9
2023-07-24T03:21:00.948Z,19.9
2023-07-24T03:24:01.038Z,19.9
2023-07-24T03:27:01.045Z,19.7
2023-07-24T03:30:01.026Z,19.7
2023-07-24T03:33:01.068Z,19.7
2023-07-24T03:36:00.967Z,19.7
2023-07-24T03:39:01.008Z,19.7
2023-07-24T03:42:01.025Z,19.7
2023-07-24T03:45:01.406Z,19.7
2023-07-24T03:48:01.070Z,19.7
2023-07-24T03:51:01.095Z,19.7
2023-07-24T03:54:01.000Z,19.7
2023-07-24T03:57:01.069Z,19.7
2023-07-24T04:00:01.114Z,19.7
2023-07-24T04:03:01.188Z,19.7
2023-07-24T04:06:01.045Z,19.7
2023-07-24T04:09:00.982Z,19.7
2023-07-24T04:12:01.007Z,19.7
2023-07-24T04:15:01.124Z,19.7
2023-07-24T04:18:01.094Z,19.7
2023-07-24T04:21:00.985Z,19.7
2023-07-24T04:24:01.016Z,19.7
2023-07-24T04:27:01.036Z,19.7
2023-07-24T04:30:01.064Z,19.7
2023-07-24T04:33:01.096Z,19.8
2023-07-24T04:36:01.011Z,19.8
2023-07-24T04:39:01.038Z,19.8
2023-07-24T04:42:01.040Z,19.8
2023-07-24T04:45:01.409Z,19.8
2023-07-24T04:48:01.211Z,19.8
2023-07-24T04:51:01.304Z,19.8
2023-07-24T04:54:00.979Z,19.8
2023-07-24T04:57:01.003Z,19.8
2023-07-24T05:00:01.135Z,19.8
2023-07-24T05:03:01.167Z,19.8
2023-07-24T05:06:01.015Z,19.8
2023-07-24T05:09:01.010Z,20
2023-07-24T05:12:01.110Z,20
2023-07-24T05:15:00.954Z,20
2023-07-24T05:18:01.093Z,20
2023-07-24T05:21:01.014Z,20
2023-07-24T05:24:00.972Z,20
2023-07-24T05:27:00.954Z,20
2023-07-24T05:30:01.316Z,20
2023-07-24T05:33:01.121Z,20
2023-07-24T05:36:01.093Z,20
2023-07-24T05:39:01.042Z,20.5
2023-07-24T05:42:01.030Z,20.5
2023-07-24T05:45:01.031Z,20.5
2023-07-24T05:48:01.102Z,20.5
2023-07-24T05:51:00.980Z,20.5
2023-07-24T05:54:01.016Z,20.5
2023-07-24T05:57:00.998Z,21
2023-07-24T06:00:01.050Z,21
2023-07-24T06:03:01.138Z,21
2023-07-24T06:06:00.954Z,21
2023-07-24T06:09:01.048Z,21
2023-07-24T06:12:01.047Z,21
2023-07-24T06:15:01.005Z,21
2023-07-24T06:18:01.072Z,21
2023-07-24T06:21:01.014Z,21
2023-07-24T06:24:01.005Z,21
2023-07-24T06:27:01.048Z,21
2023-07-24T06:30:16.049Z,21
2023-07-24T06:33:01.114Z,21
2023-07-24T06:36:01.029Z,21
2023-07-24T06:39:01.083Z,21.1
2023-07-24T06:42:00.958Z,21.1
2023-07-24T06:45:01.055Z,21.1
2023-07-24T06:48:01.115Z,21.1
2023-07-24T06:51:01.192Z,21.6
2023-07-24T06:54:01.117Z,21.6
2023-07-24T06:57:00.991Z,21.6
2023-07-24T07:00:01.348Z,21.6
2023-07-24T07:03:01.192Z,21.6
2023-07-24T07:06:01.017Z,21.6
2023-07-24T07:09:01.045Z,21.6
2023-07-24T07:12:01.021Z,22.1
2023-07-24T07:15:00.967Z,22.1
2023-07-24T07:18:01.208Z,22.1
2023-07-24T07:21:00.968Z,22.1
2023-07-24T07:24:01.002Z,22.1
2023-07-24T07:27:00.958Z,22.1
2023-07-24T07:30:01.119Z,22.1
2023-07-24T07:33:01.099Z,22.5
2023-07-24T07:36:01.049Z,22.5
2023-07-24T07:39:01.043Z,22.5
2023-07-24T07:42:17.948Z,22.8
2023-07-24T07:45:01.002Z,22.8
2023-07-24T07:48:01.062Z,22.8
2023-07-24T07:51:00.996Z,22.8
2023-07-24T07:54:01.058Z,22.8
2023-07-24T07:57:01.025Z,23.3
2023-07-24T08:00:01.127Z,23.3
2023-07-24T08:03:01.174Z,23.3
2023-07-24T08:06:01.129Z,23.4
2023-07-24T08:09:01.018Z,23.6
2023-07-24T08:12:01.124Z,23.8
2023-07-24T08:15:01.042Z,23.8
2023-07-24T08:18:01.259Z,23.8
2023-07-24T08:21:00.995Z,23.8
2023-07-24T08:24:01.061Z,24.1
2023-07-24T08:27:01.045Z,24.1
2023-07-24T08:30:01.109Z,24.1
2023-07-24T08:33:01.192Z,24.3
2023-07-24T08:36:01.070Z,24.3
2023-07-24T08:39:01.074Z,24.3
2023-07-24T08:42:01.039Z,24.3
2023-07-24T08:45:01.026Z,24.9
2023-07-24T08:48:01.088Z,24.9
2023-07-24T08:51:01.046Z,24.9
2023-07-24T08:54:01.041Z,24.9
2023-07-24T08:57:01.099Z,24.9
2023-07-24T09:00:01.075Z,24.9
2023-07-24T09:03:01.082Z,24.9
2023-07-24T09:06:01.082Z,24.7
2023-07-24T09:09:01.072Z,24.6
2023-07-24T09:12:01.043Z,24.6
2023-07-24T09:15:01.066Z,24.1
2023-07-24T09:18:01.090Z,24.1
2023-07-24T09:21:01.004Z,24.1
2023-07-24T09:24:01.004Z,23.6
2023-07-24T09:27:01.002Z,23.6
2023-07-24T09:30:01.158Z,23.6
2023-07-24T09:33:01.055Z,23.6
2023-07-24T09:36:01.086Z,23.6
2023-07-24T09:39:01.068Z,23.6
2023-07-24T09:42:01.018Z,23.6
2023-07-24T09:45:01.041Z,23.6
2023-07-24T09:48:08.265Z,23.6
2023-07-24T09:51:01.012Z,23.6
2023-07-24T09:54:01.093Z,23.6
2023-07-24T09:57:21.016Z,23.6
2023-07-24T10:00:01.038Z,23.8
2023-07-24T10:03:01.074Z,23.8
2023-07-24T10:06:00.991Z,23.8
2023-07-24T10:09:01.012Z,23.8
2023-07-24T10:12:01.023Z,23.8
2023-07-24T10:15:01.198Z,23.8
2023-07-24T10:18:01.156Z,23.8
2023-07-24T10:21:01.051Z,23.8
2023-07-24T10:24:01.043Z,23.8
2023-07-24T10:27:01.036Z,24.3
2023-07-24T10:30:01.117Z,24.3
2023-07-24T10:33:01.304Z,24.3
2023-07-24T10:36:01.070Z,24.3
2023-07-24T10:39:00.995Z,24.6
2023-07-24T10:42:01.025Z,24.6
2023-07-24T10:45:00.999Z,24.6
2023-07-24T10:48:01.088Z,24.6
2023-07-24T10:51:01.086Z,24.6
2023-07-24T10:54:01.136Z,24.6
2023-07-24T10:57:01.113Z,24.6
2023-07-24T11:00:01.114Z,25.1
2023-07-24T11:03:01.149Z,25.1
2023-07-24T11:06:01.077Z,25.1
2023-07-24T11:09:01.037Z,25.1
2023-07-24T11:12:00.986Z,25.3
2023-07-24T11:15:01.178Z,25.3
2023-07-24T11:18:01.083Z,25.3
2023-07-24T11:21:01.009Z,25.3
2023-07-24T11:24:00.961Z,25.3
2023-07-24T11:27:01.014Z,25.3
2023-07-24T11:30:00.992Z,25.3
2023-07-24T11:33:01.124Z,25.3
2023-07-24T11:36:00.943Z,25.3
2023-07-24T11:39:01.038Z,25.8
2023-07-24T11:42:00.998Z,25.8
2023-07-24T11:45:00.992Z,25.8
2023-07-24T11:48:01.032Z,25.8
2023-07-24T11:51:01.061Z,25.8
2023-07-24T11:54:00.960Z,25.8
2023-07-24T11:57:00.993Z,26.2
2023-07-24T12:00:01.025Z,26.2
2023-07-24T12:03:01.484Z,26.2
2023-07-24T12:06:01.101Z,26.2
2023-07-24T12:09:01.021Z,26.2
2023-07-24T12:12:01.087Z,26.2
2023-07-24T12:15:01.013Z,26.2
2023-07-24T12:18:01.120Z,26.2
2023-07-24T12:21:01.117Z,26.2
2023-07-24T12:24:01.008Z,26.2
2023-07-24T12:27:00.993Z,26.2
2023-07-24T12:30:01.017Z,26
2023-07-24T12:33:01.082Z,26
2023-07-24T12:36:01.097Z,26
2023-07-24T12:39:00.974Z,26
2023-07-24T12:42:01.083Z,26.1
2023-07-24T12:45:01.004Z,26.1
2023-07-24T12:48:01.250Z,26.1
2023-07-24T12:51:00.984Z,26.1
2023-07-24T12:54:20.099Z,26.1
2023-07-24T12:57:01.080Z,26.1
2023-07-24T13:00:01.119Z,26.1
2023-07-24T13:03:01.125Z,26.1
2023-07-24T13:06:01.024Z,26.1
2023-07-24T13:09:00.995Z,26.1
2023-07-24T13:12:01.016Z,26.3
2023-07-24T13:15:00.976Z,26.3
2023-07-24T13:18:22.176Z,26.3
2023-07-24T13:21:01.269Z,26.3
2023-07-24T13:24:01.037Z,26.3
2023-07-24T13:27:01.040Z,26.3
2023-07-24T13:30:01.021Z,26.3
2023-07-24T13:33:01.029Z,26.3
2023-07-24T13:36:01.058Z,26.3
2023-07-24T13:39:01.003Z,26.3
2023-07-24T13:42:01.066Z,26.3
2023-07-24T13:45:01.026Z,26.3
2023-07-24T13:48:01.073Z,26.3
2023-07-24T13:51:01.005Z,26.3
2023-07-24T13:54:03.657Z,26.3
2023-07-24T13:57:01.032Z,26.3
2023-07-24T14:00:01.129Z,26.3
2023-07-24T14:03:01.223Z,26.3
2023-07-24T14:06:01.095Z,25.3
2023-07-24T14:09:01.013Z,25.3
2023-07-24T14:12:01.077Z,25.3
2023-07-24T14:15:01.049Z,24.7
2023-07-24T14:18:01.038Z,24.7
2023-07-24T14:21:01.088Z,24.7
2023-07-24T14:24:01.110Z,24.4
2023-07-24T14:27:01.157Z,24.4
2023-07-24T14:30:01.069Z,24.4
2023-07-24T14:33:01.129Z,24.4
2023-07-24T14:36:01.064Z,24.4
2023-07-24T14:39:00.965Z,24.4
2023-07-24T14:42:01.017Z,24.4
2023-07-24T14:45:01.047Z,24.4
2023-07-24T14:48:01.090Z,24.4
2023-07-24T14:51:01.048Z,24.3
2023-07-24T14:54:01.013Z,24.3
2023-07-24T14:57:23.344Z,24.2
2023-07-24T15:00:01.278Z,24.2
2023-07-24T15:03:01.145Z,24.2
2023-07-24T15:06:01.062Z,23.9
2023-07-24T15:09:01.040Z,23.9
2023-07-24T15:12:01.146Z,23.9
2023-07-24T15:15:01.130Z,23.3
2023-07-24T15:18:01.196Z,23.1
2023-07-24T15:21:00.970Z,22.8
2023-07-24T15:24:01.021Z,22.8
2023-07-24T15:27:01.004Z,22
2023-07-24T15:30:01.056Z,21.9
2023-07-24T15:33:01.098Z,21.8
2023-07-24T15:36:01.061Z,21.6
2023-07-24T15:39:00.991Z,21.6
2023-07-24T15:42:01.025Z,21.4
2023-07-24T15:45:01.103Z,21.3
2023-07-24T15:48:01.033Z,21.3
2023-07-24T15:51:01.026Z,21.3
2023-07-24T15:54:01.048Z,21.2
2023-07-24T15:57:00.947Z,21.1
2023-07-24T16:00:01.143Z,21.1
2023-07-24T16:03:01.141Z,21.1
2023-07-24T16:06:01.040Z,21.1
2023-07-24T16:09:00.997Z,21.1
2023-07-24T16:12:01.001Z,21.1
2023-07-24T16:15:01.017Z,21.1
2023-07-24T16:21:03.690Z,21.1
2023-07-24T16:24:01.005Z,21.1
2023-07-24T16:27:01.861Z,21.1
2023-07-24T16:30:01.301Z,21
2023-07-24T16:33:01.038Z,21
2023-07-24T16:36:00.977Z,21
2023-07-24T16:39:00.981Z,20.7
2023-07-24T16:42:00.984Z,20.7
2023-07-24T16:45:01.065Z,20.7
2023-07-24T16:48:03.784Z,20.7
2023-07-24T16:51:01.029Z,20.7
2023-07-24T16:54:01.076Z,20.7
2023-07-24T16:57:01.056Z,20.7
2023-07-24T17:00:01.017Z,20.7
2023-07-24T17:03:01.193Z,20.7
2023-07-24T17:06:01.065Z,20.7
2023-07-24T17:09:01.105Z,20.7
2023-07-24T17:12:03.951Z,20.7
2023-07-24T17:15:01.003Z,20.7
2023-07-24T17:18:01.043Z,20.7
2023-07-24T17:21:01.003Z,20.7
2023-07-24T17:24:01.088Z,20.5
2023-07-24T17:27:01.081Z,20.5
2023-07-24T17:30:01.090Z,20.5
2023-07-24T17:33:01.082Z,20.5
2023-07-24T17:36:00.997Z,20.5
2023-07-24T17:39:01.080Z,20.5
2023-07-24T17:42:01.068Z,20.5
2023-07-24T17:45:01.046Z,20.5
2023-07-24T17:48:05.220Z,20.5
2023-07-24T17:51:01.013Z,20.5
2023-07-24T17:54:01.017Z,20.4
2023-07-24T17:57:01.002Z,20.4
2023-07-24T18:00:01.231Z,20.4
2023-07-24T18:03:01.199Z,20.4
2023-07-24T18:06:01.019Z,20.4
2023-07-24T18:09:00.999Z,20.4
2023-07-24T18:12:01.037Z,20.4
2023-07-24T18:15:01.044Z,20.1
2023-07-24T18:18:01.048Z,20.1
2023-07-24T18:21:08.489Z,20.1
2023-07-24T18:24:01.077Z,20.1
2023-07-24T18:27:01.018Z,20.1
2023-07-24T18:30:01.119Z,19.8
2023-07-24T18:33:01.105Z,19.8
2023-07-24T18:36:00.979Z,19.8
2023-07-24T18:39:01.023Z,19.8
2023-07-24T18:42:01.036Z,19.8
2023-07-24T18:45:01.009Z,19.6
2023-07-24T18:48:01.163Z,19.6
2023-07-24T18:51:01.008Z,19.6
2023-07-24T18:54:01.006Z,19.6
2023-07-24T18:57:00.970Z,19.6
2023-07-24T19:00:01.103Z,19.6
2023-07-24T19:03:01.087Z,19.6
2023-07-24T19:06:01.014Z,19.6
2023-07-24T19:09:00.964Z,19.2
2023-07-24T19:12:01.001Z,19.2
2023-07-24T19:15:01.008Z,19.1
2023-07-24T19:18:01.086Z,19.1
2023-07-24T19:21:01.041Z,19.1
2023-07-24T19:24:00.963Z,19.1
2023-07-24T19:27:00.958Z,19.1
2023-07-24T19:30:01.241Z,19.1
2023-07-24T19:33:01.088Z,19.1
2023-07-24T19:36:01.387Z,19.1
2023-07-24T19:39:00.984Z,18.8
2023-07-24T19:42:01.194Z,18.8
2023-07-24T19:45:01.012Z,18.8
2023-07-24T19:48:01.107Z,18.8
2023-07-24T19:51:00.998Z,18.8
2023-07-24T19:54:01.016Z,18.7
2023-07-24T19:57:00.977Z,18.7
2023-07-24T20:00:01.046Z,18.7
2023-07-24T20:03:01.194Z,18.7
2023-07-24T20:06:06.780Z,18.7
2023-07-24T20:09:00.960Z,18.7
2023-07-24T20:12:01.007Z,18.7
2023-07-24T20:15:00.976Z,18.7
2023-07-24T20:18:01.074Z,18.7
2023-07-24T20:21:00.979Z,18.7
2023-07-24T20:24:00.953Z,18.7
2023-07-24T20:27:00.926Z,18.7
2023-07-24T20:30:01.006Z,18.7
2023-07-24T20:33:01.071Z,18.6
2023-07-24T20:36:00.944Z,18.6
2023-07-24T20:39:01.182Z,18.6
2023-07-24T20:42:00.949Z,18.6
2023-07-24T20:45:01.049Z,18.6
2023-07-24T20:48:01.022Z,18.6
2023-07-24T20:51:01.007Z,18.6
2023-07-24T20:54:01.005Z,18.6
2023-07-24T20:57:00.973Z,18.6
2023-07-24T21:00:00.953Z,18.6
2023-07-24T21:03:01.049Z,18.6
2023-07-24T21:06:00.948Z,18.6
2023-07-24T21:09:00.969Z,18
2023-07-24T21:12:00.936Z,18
2023-07-24T21:15:00.982Z,18
2023-07-24T21:18:00.960Z,18
2023-07-24T21:21:02.333Z,18
2023-07-24T21:24:00.943Z,18
2023-07-24T21:27:00.921Z,18
2023-07-24T21:30:00.970Z,18
2023-07-24T21:33:00.938Z,18
2023-07-24T21:36:00.969Z,17.8
2023-07-24T21:39:00.947Z,17.8
2023-07-24T21:42:01.017Z,17.8
2023-07-24T21:45:00.947Z,17.8
2023-07-24T21:48:01.030Z,17.8
2023-07-24T21:51:00.933Z,17.8
2023-07-24T21:54:01.122Z,17.8
2023-07-24T21:57:00.937Z,17.8
2023-07-24T22:00:01.664Z,17.8
2023-07-24T22:03:01.087Z,17.8
2023-07-24T22:06:01.023Z,17.8
2023-07-24T22:09:00.977Z,17.8
2023-07-24T22:12:00.906Z,17.4
2023-07-24T22:15:00.987Z,17.4
2023-07-24T22:18:01.071Z,17.4
2023-07-24T22:21:01.018Z,17.4
2023-07-24T22:24:00.958Z,17.4
2023-07-24T22:27:01.699Z,17.4
2023-07-24T22:30:00.946Z,17.4
2023-07-24T22:33:01.019Z,17.4
2023-07-24T22:36:00.947Z,17.4
2023-07-24T22:39:00.996Z,17.4
2023-07-24T22:42:00.975Z,17.4
2023-07-24T22:45:01.037Z,17.3
2023-07-24T22:48:01.252Z,17.3
2023-07-24T22:51:00.977Z,17.3
2023-07-24T22:54:00.974Z,17.3
2023-07-24T22:57:00.946Z,17.3
2023-07-24T23:00:00.974Z,17.3
2023-07-24T23:03:01.086Z,17.3
2023-07-24T23:06:00.950Z,17.3
2023-07-24T23:09:00.995Z,17.3
2023-07-24T23:12:00.914Z,17.3
2023-07-24T23:15:00.971Z,17.3
2023-07-24T23:18:01.063Z,17.3
2023-07-24T23:21:00.925Z,17.3
2023-07-24T23:24:01.029Z,17.3
2023-07-24T23:27:00.939Z,17.3
2023-07-24T23:30:00.979Z,17.1
2023-07-24T23:33:01.041Z,17.1
2023-07-24T23:36:00.974Z,17.1
2023-07-24T23:39:00.967Z,17.1
2023-07-24T23:42:00.946Z,17.1
2023-07-24T23:45:00.943Z,17.1
2023-07-24T23:48:01.026Z,17.1
2023-07-24T23:51:00.934Z,17.1
2023-07-24T23:54:00.972Z,17.1
2023-07-24T23:57:00.939Z,17.1
